Time;durP1;ratioP1;P1;durP2;ratioP2;P2;SDS_P1;SDS_P2;PMS_P1;PMS_P2;Temp;Humidity;BMP_temperature;BMP_pressure;BME280_temperature;BME280_humidity;BME280_pressure;Samples;Min_cycle;Max_cycle;Signal;HPM_P1;HPM_P2
2023/05/25 00:02:05;;;;;;;12.82;5.45;;;7.10;99.90;;;;;;5134659;27;20159;-57
2023/05/25 00:04:33;;;;;;;17.52;6.03;;;7.10;99.90;;;;;;5134872;27;20038;-57
2023/05/25 00:07:02;;;;;;;12.65;6.40;;;7.50;99.90;;;;;;5133491;27;20502;-57
2023/05/25 00:09:28;;;;;;;14.32;6.05;;;7.20;99.90;;;;;;5133129;27;20080;-57
2023/05/25 00:11:54;;;;;;;12.02;5.47;;;7.10;99.90;;;;;;5116246;27;20126;-57
2023/05/25 00:14:20;;;;;;;12.93;6.03;;;7.10;99.90;;;;;;5100384;27;20593;-57
2023/05/25 00:16:47;;;;;;;11.90;4.68;;;7.20;99.90;;;;;;5134884;27;20043;-57
2023/05/25 00:19:13;;;;;;;11.25;5.30;;;7.30;99.90;;;;;;5112865;27;20517;-57
2023/05/25 00:21:40;;;;;;;12.13;5.50;;;9.10;99.90;;;;;;5133818;27;20050;-58
2023/05/25 00:24:06;;;;;;;10.57;4.93;;;7.80;99.90;;;;;;5133354;27;20050;-57
2023/05/25 00:26:33;;;;;;;12.35;4.97;;;7.20;99.90;;;;;;5133524;27;20118;-57
2023/05/25 00:29:02;;;;;;;14.48;5.07;;;8.70;99.90;;;;;;5134172;27;20560;-57
2023/05/25 00:31:28;;;;;;;12.93;5.30;;;8.40;99.90;;;;;;5134493;27;20039;-57
2023/05/25 00:33:54;;;;;;;15.68;5.95;;;8.00;99.90;;;;;;5135676;27;20042;-57
2023/05/25 00:36:20;;;;;;;13.02;5.30;;;8.10;99.90;;;;;;5133674;27;20096;-57
2023/05/25 00:38:45;;;;;;;13.15;5.03;;;7.70;99.90;;;;;;5134095;27;21656;-58
2023/05/25 00:41:12;;;;;;;9.65;4.70;;;7.20;99.90;;;;;;5134762;27;20045;-57
2023/05/25 00:43:38;;;;;;;10.88;4.15;;;6.90;99.90;;;;;;5133334;27;20073;-57
2023/05/25 00:46:03;;;;;;;10.85;4.53;;;8.90;99.90;;;;;;5133901;27;20758;-57
2023/05/25 00:48:29;;;;;;;14.07;5.28;;;6.80;99.90;;;;;;5133429;27;20046;-57
2023/05/25 00:50:58;;;;;;;13.38;6.68;;;7.20;99.90;;;;;;5132444;27;20035;-57
2023/05/25 00:53:25;;;;;;;10.90;5.55;;;7.50;99.90;;;;;;5115273;27;20046;-57
2023/05/25 00:56:18;;;;;;;13.80;5.28;;;6.70;99.90;;;;;;5133866;27;20034;-57
2023/05/25 00:58:48;;;;;;;10.88;5.10;;;8.90;99.90;;;;;;5097140;27;20050;-57
2023/05/25 01:01:15;;;;;;;13.38;5.72;;;6.70;99.90;;;;;;5132577;27;20039;-58
2023/05/25 01:03:44;;;;;;;18.63;5.45;;;8.90;99.90;;;;;;5116273;27;20039;-57
2023/05/25 01:06:13;;;;;;;15.57;5.55;;;6.50;99.90;;;;;;5133576;27;20422;-58
2023/05/25 01:08:48;;;;;;;12.55;5.80;;;6.80;99.90;;;;;;5134331;27;20283;-57
2023/05/25 01:11:15;;;;;;;18.65;5.90;;;8.50;99.90;;;;;;5133823;27;20049;-58
2023/05/25 01:13:42;;;;;;;12.70;5.15;;;6.80;99.90;;;;;;5134136;27;20074;-57
2023/05/25 01:16:08;;;;;;;11.38;4.65;;;6.90;99.90;;;;;;5133062;27;20394;-57
2023/05/25 01:18:34;;;;;;;8.48;4.30;;;6.80;99.90;;;;;;5132274;27;20058;-57
2023/05/25 01:21:21;;;;;;;9.45;4.28;;;7.20;99.90;;;;;;5131378;27;22023;-57
2023/05/25 01:23:57;;;;;;;7.68;3.60;;;8.00;99.90;;;;;;5133252;27;20035;-57
2023/05/25 01:26:27;;;;;;;10.63;4.20;;;7.00;99.90;;;;;;5132043;27;20620;-58
2023/05/25 01:28:55;;;;;;;8.98;4.47;;;6.90;99.90;;;;;;5131883;27;20117;-57
2023/05/25 01:31:22;;;;;;;13.73;5.43;;;6.70;99.90;;;;;;5131997;27;20078;-58
2023/05/25 01:33:52;;;;;;;12.90;4.85;;;8.20;99.90;;;;;;5134310;27;20087;-58
2023/05/25 01:36:18;;;;;;;15.98;5.38;;;6.60;99.90;;;;;;5132951;27;20041;-58
2023/05/25 01:38:44;;;;;;;8.43;4.43;;;6.60;99.90;;;;;;5132121;27;20058;-58
2023/05/25 01:41:10;;;;;;;9.07;4.32;;;6.60;99.90;;;;;;5132931;27;20414;-58
2023/05/25 01:43:36;;;;;;;8.00;3.92;;;6.70;99.90;;;;;;5132093;27;20048;-58
2023/05/25 01:46:13;;;;;;;8.95;4.22;;;8.70;99.90;;;;;;5132383;27;20060;-58
2023/05/25 01:49:01;;;;;;;16.35;5.30;;;6.70;99.90;;;;;;5132967;27;20079;-58
2023/05/25 01:51:37;;;;;;;16.67;5.45;;;6.50;99.90;;;;;;5131123;27;20126;-59
2023/05/25 01:54:19;;;;;;;9.20;4.28;;;6.90;99.90;;;;;;5133017;27;20494;-57
2023/05/25 01:56:48;;;;;;;5.07;2.92;;;6.80;99.90;;;;;;5131031;27;20038;-58
2023/05/25 01:59:18;;;;;;;6.95;3.40;;;6.60;99.90;;;;;;5132670;27;20066;-57
2023/05/25 02:01:45;;;;;;;6.97;3.17;;;6.40;99.90;;;;;;5131284;27;20050;-57
2023/05/25 02:04:11;;;;;;;7.68;3.75;;;6.40;99.90;;;;;;5134604;27;20046;-58
2023/05/25 02:06:37;;;;;;;9.10;3.63;;;6.40;99.90;;;;;;5134019;27;20038;-58
2023/05/25 02:09:03;;;;;;;9.20;3.40;;;7.20;99.90;;;;;;5133172;27;20034;-58
2023/05/25 02:11:29;;;;;;;6.38;3.25;;;6.50;99.90;;;;;;5131928;27;20037;-57
2023/05/25 02:13:54;;;;;;;8.13;3.72;;;6.70;99.90;;;;;;5132221;27;20066;-57
2023/05/25 02:16:20;;;;;;;5.93;3.30;;;6.60;99.90;;;;;;5114972;27;20042;-57
2023/05/25 02:18:46;;;;;;;7.55;3.25;;;8.40;99.90;;;;;;5132203;27;20111;-57
2023/05/25 02:21:12;;;;;;;8.65;4.00;;;6.80;99.90;;;;;;5130600;27;20049;-57
2023/05/25 02:23:38;;;;;;;8.23;4.30;;;6.70;99.90;;;;;;5132357;27;20095;-58
2023/05/25 02:26:04;;;;;;;9.15;5.10;;;6.70;99.90;;;;;;5132668;27;20035;-57
2023/05/25 02:28:29;;;;;;;15.25;5.68;;;6.80;99.90;;;;;;5131380;27;20129;-58
2023/05/25 02:30:55;;;;;;;11.70;5.88;;;6.90;99.90;;;;;;5132445;27;20062;-57
2023/05/25 02:33:21;;;;;;;13.07;6.75;;;7.20;99.90;;;;;;5131679;27;20031;-58
2023/05/25 02:35:48;;;;;;;13.80;5.88;;;6.90;99.90;;;;;;5132259;27;20798;-57
2023/05/25 02:38:14;;;;;;;11.38;5.18;;;6.90;99.90;;;;;;5132565;27;20051;-58
2023/05/25 02:40:39;;;;;;;15.30;5.43;;;7.00;99.90;;;;;;5132038;27;20166;-57
2023/05/25 02:43:05;;;;;;;14.68;5.00;;;8.80;99.90;;;;;;5131535;27;20122;-57
2023/05/25 02:45:31;;;;;;;11.27;4.75;;;6.90;99.90;;;;;;5111593;27;20445;-58
2023/05/25 02:47:57;;;;;;;11.80;5.90;;;7.80;99.90;;;;;;5132245;27;20038;-57
2023/05/25 02:50:22;;;;;;;9.73;5.38;;;6.80;99.90;;;;;;5132295;27;20034;-58
2023/05/25 02:52:48;;;;;;;13.02;5.60;;;6.90;99.90;;;;;;5132293;27;20575;-58
2023/05/25 02:55:14;;;;;;;14.20;5.35;;;7.00;99.90;;;;;;5134563;27;20049;-58
2023/05/25 02:57:40;;;;;;;16.85;6.03;;;6.90;99.90;;;;;;5118747;27;20418;-58
2023/05/25 03:00:06;;;;;;;10.27;5.30;;;6.80;99.90;;;;;;5135546;27;20660;-57
2023/05/25 03:02:32;;;;;;;10.23;5.80;;;8.90;99.90;;;;;;5135230;27;20042;-57
2023/05/25 03:04:58;;;;;;;12.02;6.00;;;6.90;99.90;;;;;;5137397;27;20447;-58
2023/05/25 03:07:25;;;;;;;8.93;5.57;;;7.00;99.90;;;;;;5136818;27;20046;-57
2023/05/25 03:09:51;;;;;;;9.27;6.07;;;6.90;99.90;;;;;;5117276;27;20035;-58
2023/05/25 03:12:17;;;;;;;9.60;5.18;;;7.70;99.90;;;;;;5135883;27;20047;-56
2023/05/25 03:14:43;;;;;;;8.73;4.72;;;6.80;99.90;;;;;;5137238;27;20038;-57
2023/05/25 03:17:09;;;;;;;11.18;4.60;;;6.70;99.90;;;;;;5136814;27;20541;-57
2023/05/25 03:19:35;;;;;;;7.82;4.38;;;6.90;99.90;;;;;;5115669;27;20514;-57
2023/05/25 03:22:02;;;;;;;7.53;4.32;;;6.60;99.90;;;;;;5135851;27;20107;-57
2023/05/25 03:24:28;;;;;;;7.38;4.35;;;6.70;99.90;;;;;;5136447;27;20061;-57
2023/05/25 03:26:54;;;;;;;7.20;4.00;;;8.00;99.90;;;;;;5136379;27;20123;-57
2023/05/25 03:29:20;;;;;;;5.45;3.85;;;8.40;99.90;;;;;;5135386;27;20487;-57
2023/05/25 03:31:46;;;;;;;7.97;3.90;;;6.90;99.90;;;;;;5117622;27;20035;-57
2023/05/25 03:34:12;;;;;;;6.60;4.13;;;6.50;99.90;;;;;;5136504;27;20503;-57
2023/05/25 03:36:38;;;;;;;10.25;4.45;;;6.60;99.90;;;;;;5136078;27;20053;-58
2023/05/25 03:39:04;;;;;;;7.20;4.50;;;6.60;99.90;;;;;;5134268;27;20527;-57
2023/05/25 03:41:30;;;;;;;10.48;4.53;;;6.70;99.90;;;;;;5134760;27;20125;-58
2023/05/25 03:43:56;;;;;;;7.80;4.60;;;6.90;99.90;;;;;;5135891;27;20114;-57
2023/05/25 03:46:22;;;;;;;9.40;4.60;;;6.90;99.90;;;;;;5135393;27;20047;-58
2023/05/25 03:48:47;;;;;;;7.15;3.95;;;6.80;99.90;;;;;;5132440;27;20035;-58
2023/05/25 03:51:13;;;;;;;5.78;3.20;;;7.00;99.90;;;;;;5115627;27;20481;-57
2023/05/25 03:53:39;;;;;;;6.85;3.72;;;7.00;99.90;;;;;;5115512;27;20134;-57
2023/05/25 03:56:05;;;;;;;7.25;4.10;;;7.10;99.90;;;;;;5134710;27;20042;-57
2023/05/25 03:58:31;;;;;;;10.80;5.60;;;7.10;99.90;;;;;;5135391;27;20047;-58
2023/05/25 04:00:57;;;;;;;7.22;4.57;;;7.70;99.90;;;;;;5134150;27;20048;-58
2023/05/25 04:03:22;;;;;;;9.98;4.63;;;7.20;99.90;;;;;;5134361;27;20403;-58
2023/05/25 04:05:48;;;;;;;8.18;4.10;;;7.20;99.90;;;;;;5133451;27;20046;-58
2023/05/25 04:08:21;;;;;;;7.10;4.25;;;9.00;99.90;;;;;;5132756;27;20047;-57
2023/05/25 04:10:47;;;;;;;7.65;4.20;;;9.30;99.90;;;;;;5133720;27;20043;-57
2023/05/25 04:13:13;;;;;;;13.07;5.25;;;7.20;99.90;;;;;;5133686;27;20309;-58
2023/05/25 04:15:39;;;;;;;12.32;6.28;;;7.30;99.90;;;;;;5132648;27;20043;-58
2023/05/25 04:18:04;;;;;;;11.25;5.78;;;7.20;99.90;;;;;;5132646;27;20042;-57
2023/05/25 04:20:30;;;;;;;12.13;5.85;;;7.30;99.90;;;;;;5134622;27;20392;-58
2023/05/25 04:22:56;;;;;;;16.52;6.38;;;7.50;99.90;;;;;;5134253;27;20491;-58
2023/05/25 04:25:22;;;;;;;11.63;7.00;;;9.50;99.90;;;;;;5134341;27;20507;-58
2023/05/25 04:27:48;;;;;;;11.75;6.68;;;7.50;99.90;;;;;;5135641;27;20125;-58
2023/05/25 04:30:14;;;;;;;14.18;7.40;;;7.40;99.90;;;;;;5136863;27;20641;-58
2023/05/25 04:32:40;;;;;;;13.82;7.38;;;8.30;99.90;;;;;;5135035;27;20039;-58
2023/05/25 04:35:06;;;;;;;22.58;10.90;;;7.80;99.90;;;;;;5134638;27;20038;-58
2023/05/25 04:37:35;;;;;;;17.42;10.52;;;8.00;99.90;;;;;;5134536;27;20388;-58
2023/05/25 04:40:05;;;;;;;17.10;9.88;;;9.20;99.90;;;;;;5134407;27;20537;-58
2023/05/25 04:42:31;;;;;;;18.23;10.25;;;8.30;99.90;;;;;;5134588;27;20057;-58
2023/05/25 04:44:58;;;;;;;22.30;10.38;;;9.70;99.90;;;;;;5135089;27;20047;-58
2023/05/25 04:47:24;;;;;;;20.77;10.52;;;8.60;99.90;;;;;;5135300;27;20133;-59
2023/05/25 04:49:50;;;;;;;19.23;10.27;;;8.60;99.90;;;;;;5132180;27;20575;-58
2023/05/25 04:52:16;;;;;;;19.48;11.27;;;8.80;99.90;;;;;;5132896;27;20035;-58
2023/05/25 04:54:42;;;;;;;22.33;10.30;;;9.10;99.90;;;;;;5133154;27;20050;-59
2023/05/25 04:57:08;;;;;;;35.70;13.13;;;9.20;99.90;;;;;;5114405;27;20051;-58
2023/05/25 04:59:33;;;;;;;16.92;10.15;;;9.30;99.90;;;;;;5131572;27;20053;-58
2023/05/25 05:01:59;;;;;;;20.40;10.18;;;9.40;99.90;;;;;;5132915;27;20051;-59
2023/05/25 05:04:25;;;;;;;20.92;9.63;;;9.40;99.90;;;;;;5132906;27;20035;-58
2023/05/25 05:06:51;;;;;;;21.65;10.38;;;9.40;99.90;;;;;;5134005;27;20030;-59
2023/05/25 05:09:17;;;;;;;22.67;9.55;;;9.60;99.90;;;;;;5132437;27;20034;-58
2023/05/25 05:11:42;;;;;;;22.40;10.18;;;9.60;99.90;;;;;;5114440;27;20142;-58
2023/05/25 05:14:08;;;;;;;22.83;9.55;;;9.80;99.90;;;;;;5134496;27;20870;-59
2023/05/25 05:16:34;;;;;;;21.40;10.07;;;10.50;99.90;;;;;;5131229;27;20121;-59
2023/05/25 05:19:00;;;;;;;21.17;10.73;;;10.10;99.90;;;;;;5132414;27;20077;-58
2023/05/25 05:21:26;;;;;;;20.38;9.93;;;10.20;99.90;;;;;;5113441;27;20410;-59
2023/05/25 05:23:52;;;;;;;19.95;10.02;;;10.20;99.90;;;;;;5133932;27;20333;-58
2023/05/25 05:26:18;;;;;;;21.70;10.10;;;10.10;99.90;;;;;;5132358;27;20113;-58
2023/05/25 05:28:44;;;;;;;21.63;9.65;;;10.20;99.90;;;;;;5132095;27;20393;-58
2023/05/25 05:31:10;;;;;;;24.83;11.02;;;10.20;99.90;;;;;;5133752;27;20059;-58
2023/05/25 05:33:36;;;;;;;21.02;10.95;;;10.50;99.90;;;;;;5133754;27;20046;-58
2023/05/25 05:36:03;;;;;;;22.05;11.43;;;10.60;99.90;;;;;;5133598;27;20114;-58
2023/05/25 05:38:29;;;;;;;17.83;9.40;;;10.60;99.90;;;;;;5132058;27;20054;-58
2023/05/25 05:40:55;;;;;;;25.83;10.55;;;10.80;99.90;;;;;;5133764;27;20038;-59
2023/05/25 05:43:21;;;;;;;19.35;10.30;;;10.90;99.90;;;;;;5133961;27;20395;-58
2023/05/25 05:45:46;;;;;;;27.75;11.50;;;11.00;99.90;;;;;;5133216;27;20090;-58
2023/05/25 05:48:12;;;;;;;24.35;9.43;;;10.90;99.90;;;;;;5132265;27;20038;-58
2023/05/25 05:50:38;;;;;;;20.67;10.32;;;11.10;99.90;;;;;;5133107;27;20039;-58
2023/05/25 05:53:05;;;;;;;25.02;10.60;;;11.30;99.90;;;;;;5133362;27;20030;-64
2023/05/25 05:55:31;;;;;;;22.02;10.90;;;11.30;99.90;;;;;;5132258;27;20058;-63
2023/05/25 05:57:57;;;;;;;24.05;10.57;;;11.40;99.90;;;;;;5115269;27;20516;-63
2023/05/25 06:00:23;;;;;;;21.02;10.13;;;11.40;99.90;;;;;;5132355;27;20038;-63
2023/05/25 06:02:49;;;;;;;29.40;10.50;;;11.60;99.90;;;;;;5132075;27;20053;-63
2023/05/25 06:05:15;;;;;;;23.63;9.68;;;11.60;99.90;;;;;;5115643;27;20042;-64
2023/05/25 06:07:41;;;;;;;21.25;9.63;;;11.60;99.90;;;;;;5134439;27;20381;-64
2023/05/25 06:10:07;;;;;;;23.13;10.55;;;11.80;99.90;;;;;;5132403;27;20046;-63
2023/05/25 06:12:33;;;;;;;24.08;9.98;;;11.70;99.90;;;;;;5131731;27;20043;-63
2023/05/25 06:14:59;;;;;;;18.88;8.93;;;11.90;99.90;;;;;;5132098;27;20087;-64
2023/05/25 06:17:26;;;;;;;24.52;9.35;;;11.90;99.90;;;;;;5132904;27;20049;-62
2023/05/25 06:19:52;;;;;;;22.25;8.85;;;12.10;99.90;;;;;;5130887;27;20141;-63
2023/05/25 06:22:18;;;;;;;24.70;8.30;;;12.10;99.90;;;;;;5110212;27;20049;-63
2023/05/25 06:24:44;;;;;;;19.25;8.15;;;12.10;99.90;;;;;;5112570;27;20038;-64
2023/05/25 06:27:09;;;;;;;19.08;6.60;;;12.20;99.90;;;;;;5130542;27;20133;-65
2023/05/25 06:29:35;;;;;;;16.15;5.78;;;12.30;99.90;;;;;;5128784;27;20051;-65
2023/05/25 06:32:01;;;;;;;20.08;6.35;;;12.20;99.90;;;;;;5129266;27;20042;-65
2023/05/25 06:34:27;;;;;;;14.95;5.13;;;12.40;99.90;;;;;;5131297;27;20038;-64
2023/05/25 06:36:53;;;;;;;19.10;6.57;;;12.40;99.90;;;;;;5132641;27;20118;-63
2023/05/25 06:39:19;;;;;;;18.05;5.63;;;12.60;99.90;;;;;;5131471;27;20159;-62
2023/05/25 06:41:45;;;;;;;15.75;4.63;;;12.70;99.90;;;;;;5130202;27;20084;-64
2023/05/25 06:44:10;;;;;;;18.38;4.75;;;12.90;99.90;;;;;;5132103;27;20038;-64
2023/05/25 06:46:37;;;;;;;17.10;4.28;;;12.70;99.90;;;;;;5128951;27;20035;-66
2023/05/25 06:49:04;;;;;;;13.75;3.80;;;13.00;99.90;;;;;;5130219;27;20053;-63
2023/05/25 06:51:30;;;;;;;16.33;4.38;;;13.10;99.90;;;;;;5129888;27;20045;-63
2023/05/25 06:53:56;;;;;;;21.15;4.60;;;13.20;99.90;;;;;;5132531;27;20449;-65
2023/05/25 06:56:22;;;;;;;15.75;4.32;;;13.00;99.90;;;;;;5110511;27;20175;-64
2023/05/25 06:58:51;;;;;;;17.23;4.38;;;12.90;99.90;;;;;;5130724;27;20046;-64
2023/05/25 07:01:16;;;;;;;17.38;3.83;;;13.10;99.90;;;;;;5129951;27;20165;-65
2023/05/25 07:03:42;;;;;;;18.75;3.97;;;13.10;99.90;;;;;;5131044;27;20376;-63
2023/05/25 07:06:10;;;;;;;16.65;4.18;;;13.00;99.90;;;;;;5133612;27;20039;-64
2023/05/25 07:08:36;;;;;;;14.85;3.63;;;13.10;99.90;;;;;;5113213;27;20494;-65
2023/05/25 07:11:01;;;;;;;16.45;3.20;;;13.30;99.90;;;;;;5130184;27;20049;-64
2023/05/25 07:13:27;;;;;;;13.15;3.45;;;13.40;99.90;;;;;;5130072;27;20110;-63
2023/05/25 07:15:53;;;;;;;18.55;3.55;;;13.50;99.90;;;;;;5112666;27;20046;-64
2023/05/25 07:18:19;;;;;;;14.32;3.55;;;13.50;99.90;;;;;;5130720;27;20043;-63
2023/05/25 07:20:45;;;;;;;11.75;3.35;;;13.40;99.90;;;;;;5063717;28;1277831;-63
2023/05/25 07:23:11;;;;;;;14.45;3.85;;;13.40;99.90;;;;;;5111229;27;21874;-64
2023/05/25 07:25:37;;;;;;;11.95;3.30;;;13.80;99.90;;;;;;5088195;28;20039;-64
2023/05/25 07:28:03;;;;;;;18.00;4.18;;;13.50;99.90;;;;;;5110971;27;20679;-63
2023/05/25 07:30:29;;;;;;;16.27;3.70;;;13.80;99.90;;;;;;5109131;28;20047;-64
2023/05/25 07:32:56;;;;;;;18.75;4.47;;;13.70;99.90;;;;;;5111537;28;20050;-66
2023/05/25 07:35:23;;;;;;;18.60;4.30;;;13.80;99.90;;;;;;5113095;27;20403;-69
2023/05/25 07:37:59;;;;;;;20.20;4.30;;;13.70;99.90;;;;;;5111721;28;20099;-72
2023/05/25 07:40:25;;;;;;;19.33;4.40;;;13.90;99.90;;;;;;5111533;27;21118;-68
2023/05/25 07:42:51;;;;;;;21.30;4.65;;;14.20;99.90;;;;;;5114689;27;20146;-71
2023/05/25 07:45:17;;;;;;;20.17;4.00;;;14.60;99.90;;;;;;5114833;27;20119;-69
2023/05/25 07:47:43;;;;;;;19.60;5.28;;;14.50;99.90;;;;;;5113508;27;20047;-69
2023/05/25 07:50:09;;;;;;;15.55;3.95;;;14.40;99.90;;;;;;5113974;27;20047;-70
2023/05/25 07:52:37;;;;;;;22.30;5.47;;;14.10;99.90;;;;;;5114776;27;20353;-69
2023/05/25 07:55:03;;;;;;;23.45;5.25;;;13.60;99.90;;;;;;5114271;27;20043;-69
2023/05/25 07:57:29;;;;;;;20.55;4.20;;;13.40;99.90;;;;;;5113602;27;20039;-69
2023/05/25 07:59:54;;;;;;;19.75;4.32;;;13.20;99.90;;;;;;5113146;27;20067;-69
2023/05/25 08:02:20;;;;;;;22.80;4.78;;;13.20;99.90;;;;;;5115667;27;20039;-70
2023/05/25 08:04:46;;;;;;;19.15;3.85;;;13.30;99.90;;;;;;5114077;27;20089;-70
2023/05/25 08:07:12;;;;;;;20.50;4.75;;;14.30;99.90;;;;;;5115934;27;20054;-72
2023/05/25 08:09:38;;;;;;;20.77;4.75;;;15.40;99.90;;;;;;5114672;27;20764;-72
2023/05/25 08:12:03;;;;;;;16.83;4.13;;;16.60;99.90;;;;;;5114815;27;20047;-71
2023/05/25 08:14:29;;;;;;;21.00;4.57;;;16.90;99.90;;;;;;5113248;27;20048;-71
2023/05/25 08:16:55;;;;;;;25.05;4.57;;;16.70;99.90;;;;;;5114512;27;20039;-70
2023/05/25 08:19:21;;;;;;;28.13;5.05;;;16.00;99.90;;;;;;5121393;27;20071;-70
2023/05/25 08:21:47;;;;;;;23.05;4.60;;;15.70;99.90;;;;;;5135024;27;20050;-70
2023/05/25 08:24:12;;;;;;;23.58;5.05;;;16.20;99.90;;;;;;5135533;27;20446;-69
2023/05/25 08:26:39;;;;;;;23.67;4.88;;;17.30;99.90;;;;;;5135837;27;21863;-71
2023/05/25 08:29:05;;;;;;;27.73;5.10;;;16.90;99.90;;;;;;5136272;27;20111;-71
2023/05/25 08:31:31;;;;;;;24.42;5.25;;;17.10;99.90;;;;;;5135146;27;20038;-70
2023/05/25 08:33:58;;;;;;;18.58;4.53;;;17.80;99.90;;;;;;5136096;27;20042;-70
2023/05/25 08:36:27;;;;;;;17.63;4.82;;;18.40;99.90;;;;;;5135845;27;20039;-70
2023/05/25 08:38:53;;;;;;;15.90;4.43;;;18.60;99.90;;;;;;5135830;27;20050;-69
2023/05/25 08:41:20;;;;;;;25.55;5.35;;;18.90;99.90;;;;;;5136819;27;20038;-71
2023/05/25 08:43:46;;;;;;;21.98;6.07;;;18.50;99.90;;;;;;5135922;27;20043;-70
2023/05/25 08:46:12;;;;;;;25.20;5.50;;;17.80;99.90;;;;;;5134561;27;20189;-71
2023/05/25 08:48:38;;;;;;;27.60;5.28;;;17.80;99.90;;;;;;5132932;27;20049;-70
2023/05/25 08:51:06;;;;;;;23.67;6.07;;;17.70;99.90;;;;;;5133620;27;20691;-72
2023/05/25 08:53:35;;;;;;;24.67;5.35;;;15.70;99.90;;;;;;5133333;27;20043;-69
2023/05/25 08:56:06;;;;;;;20.50;5.28;;;16.80;99.90;;;;;;5133970;27;20060;-71
2023/05/25 08:58:42;;;;;;;25.23;5.15;;;16.40;99.90;;;;;;5114436;27;20467;-70
2023/05/25 09:01:11;;;;;;;22.60;4.53;;;16.60;99.90;;;;;;5133877;27;20111;-70
2023/05/25 09:03:38;;;;;;;21.85;5.65;;;16.50;99.90;;;;;;5133345;27;20035;-69
2023/05/25 09:06:03;;;;;;;22.63;4.63;;;16.40;99.90;;;;;;5115235;27;20103;-68
2023/05/25 09:08:30;;;;;;;25.60;5.72;;;16.70;99.90;;;;;;5131180;27;20046;-69
2023/05/25 09:10:56;;;;;;;20.50;5.28;;;16.40;99.90;;;;;;5096527;27;20120;-69
2023/05/25 09:13:22;;;;;;;26.13;5.32;;;16.80;99.90;;;;;;5132847;27;20058;-68
2023/05/25 09:15:48;;;;;;;26.40;5.35;;;16.50;99.90;;;;;;5131003;27;20126;-71
2023/05/25 09:18:14;;;;;;;21.58;4.95;;;16.10;99.90;;;;;;5131441;27;20772;-69
2023/05/25 09:20:40;;;;;;;25.15;4.95;;;16.00;99.90;;;;;;5129681;27;20047;-69
2023/05/25 09:23:07;;;;;;;24.30;5.45;;;15.70;99.90;;;;;;5132336;27;20054;-69
2023/05/25 09:25:34;;;;;;;22.05;5.38;;;15.80;99.90;;;;;;5130901;27;20113;-70
2023/05/25 09:28:00;;;;;;;25.63;4.90;;;14.70;99.90;;;;;;5132946;27;20186;-69
2023/05/25 09:30:31;;;;;;;30.98;5.38;;;15.70;99.90;;;;;;5132893;27;20042;-69
2023/05/25 09:33:11;;;;;;;21.35;4.75;;;15.50;99.90;;;;;;5131178;27;20081;-70
2023/05/25 09:35:38;;;;;;;19.63;4.28;;;15.10;99.90;;;;;;5133184;27;20047;-71
2023/05/25 09:38:04;;;;;;;26.80;4.93;;;15.40;99.90;;;;;;5113375;27;20061;-70
2023/05/25 09:40:32;;;;;;;21.38;4.47;;;15.30;99.90;;;;;;5111793;27;20035;-69
2023/05/25 09:42:58;;;;;;;15.95;3.60;;;15.40;99.90;;;;;;5132418;27;20039;-70
2023/05/25 09:45:24;;;;;;;20.23;4.57;;;15.80;99.90;;;;;;5112183;27;20065;-70
2023/05/25 09:47:57;;;;;;;24.88;4.60;;;16.00;99.90;;;;;;5131432;27;20120;-69
2023/05/25 09:50:23;;;;;;;21.00;4.78;;;15.80;99.90;;;;;;5131730;27;20046;-68
2023/05/25 09:52:50;;;;;;;25.10;5.03;;;15.70;99.90;;;;;;5132200;27;20352;-70
2023/05/25 09:55:16;;;;;;;21.27;4.95;;;18.30;99.90;;;;;;5115190;27;20447;-69
2023/05/25 09:57:43;;;;;;;21.80;4.72;;;15.50;99.90;;;;;;5131818;27;20045;-69
2023/05/25 10:00:10;;;;;;;20.35;4.63;;;15.70;99.90;;;;;;5135336;27;20039;-71
2023/05/25 10:02:36;;;;;;;22.48;4.65;;;16.00;99.90;;;;;;5120188;27;20050;-70
2023/05/25 10:05:02;;;;;;;16.02;4.05;;;16.10;99.90;;;;;;5140232;27;20296;-70
2023/05/25 10:07:29;;;;;;;21.13;4.40;;;16.30;99.90;;;;;;5141228;27;20099;-70
2023/05/25 10:09:56;;;;;;;25.15;4.65;;;16.40;99.90;;;;;;5140558;27;20122;-71
2023/05/25 10:12:23;;;;;;;24.55;4.40;;;16.60;99.90;;;;;;5141480;27;20042;-69
2023/05/25 10:14:50;;;;;;;21.73;4.82;;;16.60;99.90;;;;;;5140326;27;20143;-70
2023/05/25 10:17:22;;;;;;;18.77;4.60;;;16.10;99.90;;;;;;5140560;27;20433;-69
2023/05/25 10:19:53;;;;;;;20.55;4.78;;;16.00;99.90;;;;;;5139572;27;20055;-67
2023/05/25 10:22:24;;;;;;;26.03;4.70;;;15.90;99.90;;;;;;5121023;27;20518;-68
2023/05/25 10:24:56;;;;;;;22.63;4.57;;;16.20;99.90;;;;;;5140266;27;20038;-69
2023/05/25 10:27:24;;;;;;;20.10;4.28;;;16.00;99.90;;;;;;5140102;27;20046;-69
2023/05/25 10:29:51;;;;;;;19.00;4.80;;;15.90;99.90;;;;;;5140000;27;20102;-70
2023/05/25 10:32:17;;;;;;;27.70;5.85;;;16.00;99.90;;;;;;5140096;27;20039;-69
2023/05/25 10:34:45;;;;;;;21.00;5.65;;;15.70;99.90;;;;;;5140068;27;20043;-70
2023/05/25 10:37:13;;;;;;;26.58;6.20;;;15.20;99.90;;;;;;5139635;27;20685;-72
2023/05/25 10:39:41;;;;;;;23.70;5.03;;;15.10;99.90;;;;;;5139853;27;20094;-70
2023/05/25 10:42:07;;;;;;;21.67;4.85;;;15.60;99.90;;;;;;5139850;27;20050;-71
2023/05/25 10:44:33;;;;;;;21.75;5.03;;;15.80;99.90;;;;;;5140622;27;20126;-72
2023/05/25 10:46:59;;;;;;;27.33;4.78;;;16.00;99.90;;;;;;5139989;27;20126;-70
2023/05/25 10:49:56;;;;;;;23.80;5.80;;;15.80;99.90;;;;;;5121491;27;20042;-72
2023/05/25 10:52:30;;;;;;;24.65;4.88;;;15.30;99.90;;;;;;5140122;27;20047;-70
2023/05/25 10:55:00;;;;;;;21.98;5.18;;;15.60;99.90;;;;;;5140221;27;20041;-69
2023/05/25 10:57:26;;;;;;;24.80;4.70;;;15.60;99.90;;;;;;5140018;27;20042;-70
2023/05/25 10:59:59;;;;;;;23.27;5.07;;;15.80;99.90;;;;;;5140328;27;20540;-71
2023/05/25 11:02:28;;;;;;;25.92;5.20;;;15.70;99.90;;;;;;5141037;27;20051;-70
2023/05/25 11:05:25;;;;;;;24.45;4.60;;;15.50;99.90;;;;;;5138981;27;20084;-70
2023/05/25 11:07:56;;;;;;;20.08;4.75;;;16.00;99.90;;;;;;5139024;27;20038;-71
2023/05/25 11:10:58;;;;;;;27.65;5.30;;;15.80;99.90;;;;;;5141611;27;20043;-69
2023/05/25 11:13:30;;;;;;;22.65;4.75;;;15.80;99.90;;;;;;5121935;27;20062;-69
2023/05/25 11:16:11;;;;;;;25.80;5.32;;;16.00;99.90;;;;;;5142303;27;20135;-70
2023/05/25 11:18:37;;;;;;;23.35;5.32;;;16.00;99.90;;;;;;5144226;27;20042;-70
2023/05/25 11:21:21;;;;;;;20.98;5.03;;;15.90;99.90;;;;;;5143010;27;20082;-69
2023/05/25 11:24:10;;;;;;;23.50;5.18;;;15.70;99.90;;;;;;5142257;27;20042;-70
2023/05/25 11:26:36;;;;;;;24.08;4.88;;;15.90;99.90;;;;;;5142060;27;20069;-69
2023/05/25 11:29:13;;;;;;;26.63;5.30;;;16.00;99.90;;;;;;5124038;27;20045;-69
2023/05/25 11:31:39;;;;;;;25.13;5.00;;;16.00;99.90;;;;;;5143549;27;20593;-69
2023/05/25 11:34:05;;;;;;;22.15;4.65;;;15.90;99.90;;;;;;5140972;27;21180;-70
2023/05/25 11:36:33;;;;;;;27.45;4.68;;;16.30;99.90;;;;;;5142518;27;20058;-69
2023/05/25 11:39:01;;;;;;;25.65;5.75;;;16.40;99.90;;;;;;5143164;27;20047;-70
2023/05/25 11:41:32;;;;;;;25.42;5.35;;;16.10;99.90;;;;;;5124658;27;20102;-70
2023/05/25 11:44:03;;;;;;;;;;;14.90;99.90;;;;;;5143382;27;20035;-70
2023/05/25 11:46:29;;;;;;;18.45;3.75;;;16.40;99.90;;;;;;5142675;27;19970;-68
2023/05/25 11:48:55;;;;;;;19.17;4.78;;;16.40;99.90;;;;;;5136620;27;20133;-70
2023/05/25 11:51:23;;;;;;;18.00;4.30;;;16.60;99.90;;;;;;5134368;27;20427;-68
2023/05/25 11:53:49;;;;;;;24.20;5.68;;;16.40;99.90;;;;;;5135017;27;20099;-69
2023/05/25 11:56:17;;;;;;;20.50;4.80;;;16.30;99.90;;;;;;5134946;27;20240;-68
2023/05/25 11:58:44;;;;;;;22.15;4.15;;;15.50;99.90;;;;;;5134105;27;20043;-68
2023/05/25 12:01:15;;;;;;;19.70;4.43;;;16.40;99.90;;;;;;5115438;27;20055;-68
2023/05/25 12:03:41;;;;;;;23.30;4.97;;;16.70;99.90;;;;;;5133571;27;20087;-68
2023/05/25 12:06:07;;;;;;;24.05;5.25;;;16.40;99.90;;;;;;5115771;27;20039;-67
2023/05/25 12:08:36;;;;;;;21.65;4.68;;;16.10;99.90;;;;;;5133794;27;20510;-68
2023/05/25 12:11:02;;;;;;;16.65;4.30;;;16.10;99.90;;;;;;5133599;27;20038;-66
2023/05/25 12:13:30;;;;;;;20.50;4.28;;;15.80;99.90;;;;;;5133208;27;20175;-69
2023/05/25 12:15:56;;;;;;;25.88;5.20;;;15.90;99.90;;;;;;5134918;27;20038;-67
2023/05/25 12:18:23;;;;;;;21.23;4.75;;;15.70;99.90;;;;;;5135236;27;20933;-67
2023/05/25 12:20:50;;;;;;;22.90;5.28;;;15.70;99.90;;;;;;5132872;27;20058;-70
2023/05/25 12:23:16;;;;;;;17.33;4.32;;;15.60;99.90;;;;;;5133569;27;20187;-69
2023/05/25 12:25:42;;;;;;;19.05;5.10;;;15.70;99.90;;;;;;5134544;27;20048;-69
2023/05/25 12:28:11;;;;;;;23.33;4.88;;;16.10;99.90;;;;;;5133805;27;20034;-68
2023/05/25 12:30:37;;;;;;;25.77;5.40;;;16.10;99.90;;;;;;5132878;27;20047;-69
2023/05/25 12:33:03;;;;;;;22.00;5.10;;;16.00;99.90;;;;;;5133574;27;20073;-70
2023/05/25 12:35:42;;;;;;;23.05;4.90;;;15.80;99.90;;;;;;5134176;27;20050;-69
2023/05/25 12:38:12;;;;;;;32.25;5.88;;;15.30;99.90;;;;;;5133463;27;20419;-68
2023/05/25 12:40:37;;;;;;;24.10;5.15;;;15.40;99.90;;;;;;5115427;27;20066;-71
2023/05/25 12:43:03;;;;;;;25.13;4.68;;;15.60;99.90;;;;;;5135530;27;20071;-68